sensor_id;sensor_type;location;lat;lon;timestamp;P1;durP1;ratioP1;P2;durP2;ratioP2
2049;SDS011;8478;49.208;8.806;2023-12-20T00:00:57;5.87;;;5.30;;
2049;SDS011;8478;49.208;8.806;2023-12-20T00:03:23;5.37;;;4.97;;
2049;SDS011;8478;49.208;8.806;2023-12-20T00:05:49;6.00;;;5.10;;
2049;SDS011;8478;49.208;8.806;2023-12-20T00:08:15;5.63;;;5.20;;
2049;SDS011;8478;49.208;8.806;2023-12-20T00:10:41;5.50;;;5.00;;
2049;SDS011;8478;49.208;8.806;2023-12-20T00:13:06;4.90;;;4.40;;
2049;SDS011;8478;49.208;8.806;2023-12-20T00:15:33;5.67;;;5.13;;
2049;SDS011;8478;49.208;8.806;2023-12-20T00:17:59;5.40;;;4.90;;
2049;SDS011;8478;49.208;8.806;2023-12-20T00:20:24;6.00;;;5.50;;
2049;SDS011;8478;49.208;8.806;2023-12-20T00:22:50;5.53;;;5.03;;
2049;SDS011;8478;49.208;8.806;2023-12-20T00:25:16;5.50;;;5.00;;
2049;SDS011;8478;49.208;8.806;2023-12-20T00:27:41;5.90;;;5.40;;
2049;SDS011;8478;49.208;8.806;2023-12-20T00:30:07;5.50;;;5.03;;
2049;SDS011;8478;49.208;8.806;2023-12-20T00:32:34;5.97;;;5.47;;
2049;SDS011;8478;49.208;8.806;2023-12-20T00:35:01;6.53;;;5.80;;
2049;SDS011;8478;49.208;8.806;2023-12-20T00:37:26;5.30;;;4.80;;
2049;SDS011;8478;49.208;8.806;2023-12-20T00:39:52;7.20;;;5.30;;
2049;SDS011;8478;49.208;8.806;2023-12-20T00:42:18;5.57;;;5.07;;
2049;SDS011;8478;49.208;8.806;2023-12-20T00:44:44;5.93;;;5.33;;
2049;SDS011;8478;49.208;8.806;2023-12-20T00:47:09;5.33;;;4.90;;
2049;SDS011;8478;49.208;8.806;2023-12-20T00:49:35;6.47;;;5.97;;
2049;SDS011;8478;49.208;8.806;2023-12-20T00:52:01;5.63;;;5.13;;
2049;SDS011;8478;49.208;8.806;2023-12-20T00:54:26;7.43;;;5.00;;
2049;SDS011;8478;49.208;8.806;2023-12-20T00:56:52;5.20;;;4.73;;
2049;SDS011;8478;49.208;8.806;2023-12-20T00:59:18;5.97;;;5.47;;
2049;SDS011;8478;49.208;8.806;2023-12-20T01:01:44;5.03;;;4.63;;
2049;SDS011;8478;49.208;8.806;2023-12-20T01:04:09;5.17;;;4.60;;
2049;SDS011;8478;49.208;8.806;2023-12-20T01:06:35;5.13;;;4.73;;
2049;SDS011;8478;49.208;8.806;2023-12-20T01:09:01;5.17;;;4.77;;
2049;SDS011;8478;49.208;8.806;2023-12-20T01:11:27;4.97;;;4.57;;
2049;SDS011;8478;49.208;8.806;2023-12-20T01:13:53;6.27;;;5.67;;
2049;SDS011;8478;49.208;8.806;2023-12-20T01:16:18;4.43;;;4.03;;
2049;SDS011;8478;49.208;8.806;2023-12-20T01:18:44;4.90;;;4.50;;
2049;SDS011;8478;49.208;8.806;2023-12-20T01:21:10;5.70;;;5.20;;
2049;SDS011;8478;49.208;8.806;2023-12-20T01:23:35;5.73;;;5.27;;
2049;SDS011;8478;49.208;8.806;2023-12-20T01:26:01;4.87;;;4.47;;
2049;SDS011;8478;49.208;8.806;2023-12-20T01:28:28;4.70;;;4.40;;
2049;SDS011;8478;49.208;8.806;2023-12-20T01:30:53;4.40;;;4.00;;
2049;SDS011;8478;49.208;8.806;2023-12-20T01:33:19;4.63;;;4.23;;
2049;SDS011;8478;49.208;8.806;2023-12-20T01:35:44;5.33;;;4.93;;
2049;SDS011;8478;49.208;8.806;2023-12-20T01:38:10;5.40;;;4.70;;
2049;SDS011;8478;49.208;8.806;2023-12-20T01:40:36;5.13;;;4.63;;
2049;SDS011;8478;49.208;8.806;2023-12-20T01:43:02;5.00;;;4.60;;
2049;SDS011;8478;49.208;8.806;2023-12-20T01:45:37;4.50;;;4.00;;
2049;SDS011;8478;49.208;8.806;2023-12-20T01:48:03;5.17;;;4.30;;
2049;SDS011;8478;49.208;8.806;2023-12-20T01:50:31;4.20;;;3.90;;
2049;SDS011;8478;49.208;8.806;2023-12-20T01:52:57;4.10;;;3.80;;
2049;SDS011;8478;49.208;8.806;2023-12-20T01:55:25;4.70;;;4.30;;
2049;SDS011;8478;49.208;8.806;2023-12-20T01:57:54;4.60;;;4.30;;
2049;SDS011;8478;49.208;8.806;2023-12-20T02:00:21;3.97;;;3.67;;
2049;SDS011;8478;49.208;8.806;2023-12-20T02:02:48;4.13;;;3.80;;
2049;SDS011;8478;49.208;8.806;2023-12-20T02:05:17;3.93;;;3.63;;
2049;SDS011;8478;49.208;8.806;2023-12-20T02:07:43;3.83;;;3.47;;
2049;SDS011;8478;49.208;8.806;2023-12-20T02:10:09;4.40;;;4.10;;
2049;SDS011;8478;49.208;8.806;2023-12-20T02:12:34;4.30;;;4.00;;
2049;SDS011;8478;49.208;8.806;2023-12-20T02:15:00;3.80;;;3.50;;
2049;SDS011;8478;49.208;8.806;2023-12-20T02:17:27;3.80;;;3.50;;
2049;SDS011;8478;49.208;8.806;2023-12-20T02:19:53;3.63;;;3.33;;
2049;SDS011;8478;49.208;8.806;2023-12-20T02:22:18;4.20;;;3.80;;
2049;SDS011;8478;49.208;8.806;2023-12-20T02:24:44;4.10;;;3.80;;
2049;SDS011;8478;49.208;8.806;2023-12-20T02:27:09;4.17;;;3.87;;
2049;SDS011;8478;49.208;8.806;2023-12-20T02:29:36;4.07;;;3.70;;
2049;SDS011;8478;49.208;8.806;2023-12-20T02:32:02;4.10;;;3.80;;
2049;SDS011;8478;49.208;8.806;2023-12-20T02:34:28;4.37;;;4.00;;
2049;SDS011;8478;49.208;8.806;2023-12-20T02:36:54;3.53;;;3.23;;
2049;SDS011;8478;49.208;8.806;2023-12-20T02:39:20;3.90;;;3.60;;
2049;SDS011;8478;49.208;8.806;2023-12-20T02:41:47;3.90;;;3.60;;
2049;SDS011;8478;49.208;8.806;2023-12-20T02:44:13;3.87;;;3.57;;
2049;SDS011;8478;49.208;8.806;2023-12-20T02:46:39;4.03;;;3.73;;
2049;SDS011;8478;49.208;8.806;2023-12-20T02:49:05;4.03;;;3.73;;
2049;SDS011;8478;49.208;8.806;2023-12-20T02:51:31;4.30;;;3.90;;
2049;SDS011;8478;49.208;8.806;2023-12-20T02:53:57;4.67;;;4.27;;
2049;SDS011;8478;49.208;8.806;2023-12-20T02:56:23;4.00;;;3.70;;
2049;SDS011;8478;49.208;8.806;2023-12-20T02:58:48;4.27;;;3.97;;
2049;SDS011;8478;49.208;8.806;2023-12-20T03:01:14;3.63;;;3.33;;
2049;SDS011;8478;49.208;8.806;2023-12-20T03:03:40;3.87;;;3.57;;
2049;SDS011;8478;49.208;8.806;2023-12-20T03:06:05;3.50;;;3.20;;
2049;SDS011;8478;49.208;8.806;2023-12-20T03:08:31;4.17;;;3.87;;
2049;SDS011;8478;49.208;8.806;2023-12-20T03:10:59;3.80;;;3.50;;
2049;SDS011;8478;49.208;8.806;2023-12-20T03:13:24;3.63;;;3.33;;
2049;SDS011;8478;49.208;8.806;2023-12-20T03:15:50;4.13;;;3.83;;
2049;SDS011;8478;49.208;8.806;2023-12-20T03:18:16;4.13;;;3.83;;
2049;SDS011;8478;49.208;8.806;2023-12-20T03:20:43;4.30;;;4.00;;
2049;SDS011;8478;49.208;8.806;2023-12-20T03:23:08;3.80;;;3.60;;
2049;SDS011;8478;49.208;8.806;2023-12-20T03:25:34;4.50;;;4.10;;
2049;SDS011;8478;49.208;8.806;2023-12-20T03:28:00;4.47;;;3.83;;
2049;SDS011;8478;49.208;8.806;2023-12-20T03:30:26;3.73;;;3.43;;
2049;SDS011;8478;49.208;8.806;2023-12-20T03:32:51;4.23;;;3.60;;
2049;SDS011;8478;49.208;8.806;2023-12-20T03:35:17;3.50;;;3.20;;
2049;SDS011;8478;49.208;8.806;2023-12-20T03:37:42;4.20;;;3.90;;
2049;SDS011;8478;49.208;8.806;2023-12-20T03:40:08;3.57;;;3.37;;
2049;SDS011;8478;49.208;8.806;2023-12-20T03:42:34;3.47;;;3.27;;
2049;SDS011;8478;49.208;8.806;2023-12-20T03:45:00;4.30;;;3.37;;
2049;SDS011;8478;49.208;8.806;2023-12-20T03:47:26;4.00;;;3.60;;
2049;SDS011;8478;49.208;8.806;2023-12-20T03:49:51;3.77;;;3.47;;
2049;SDS011;8478;49.208;8.806;2023-12-20T03:52:18;3.50;;;2.97;;
2049;SDS011;8478;49.208;8.806;2023-12-20T03:54:43;3.97;;;3.67;;
2049;SDS011;8478;49.208;8.806;2023-12-20T03:57:09;3.53;;;3.23;;
2049;SDS011;8478;49.208;8.806;2023-12-20T03:59:35;3.17;;;2.97;;
2049;SDS011;8478;49.208;8.806;2023-12-20T04:02:02;3.03;;;2.83;;
2049;SDS011;8478;49.208;8.806;2023-12-20T04:04:27;3.30;;;3.10;;
2049;SDS011;8478;49.208;8.806;2023-12-20T04:06:53;3.43;;;3.13;;
2049;SDS011;8478;49.208;8.806;2023-12-20T04:09:19;3.60;;;3.30;;
2049;SDS011;8478;49.208;8.806;2023-12-20T04:11:45;3.60;;;3.30;;
2049;SDS011;8478;49.208;8.806;2023-12-20T04:14:10;3.43;;;3.03;;
2049;SDS011;8478;49.208;8.806;2023-12-20T04:16:36;3.83;;;3.30;;
2049;SDS011;8478;49.208;8.806;2023-12-20T04:19:02;3.00;;;2.80;;
2049;SDS011;8478;49.208;8.806;2023-12-20T04:21:27;3.50;;;3.30;;
2049;SDS011;8478;49.208;8.806;2023-12-20T04:23:53;3.37;;;3.07;;
2049;SDS011;8478;49.208;8.806;2023-12-20T04:26:19;3.37;;;3.17;;
2049;SDS011;8478;49.208;8.806;2023-12-20T04:28:44;3.50;;;3.20;;
2049;SDS011;8478;49.208;8.806;2023-12-20T04:31:10;4.33;;;3.00;;
2049;SDS011;8478;49.208;8.806;2023-12-20T04:33:36;2.90;;;2.70;;
2049;SDS011;8478;49.208;8.806;2023-12-20T04:36:01;3.00;;;2.80;;
2049;SDS011;8478;49.208;8.806;2023-12-20T04:38:27;3.20;;;2.90;;
2049;SDS011;8478;49.208;8.806;2023-12-20T04:40:53;3.30;;;3.10;;
2049;SDS011;8478;49.208;8.806;2023-12-20T04:43:18;3.23;;;3.03;;
2049;SDS011;8478;49.208;8.806;2023-12-20T04:45:44;3.90;;;3.47;;
2049;SDS011;8478;49.208;8.806;2023-12-20T04:48:09;3.70;;;3.40;;
2049;SDS011;8478;49.208;8.806;2023-12-20T04:50:35;3.20;;;2.90;;
2049;SDS011;8478;49.208;8.806;2023-12-20T04:53:01;2.97;;;2.77;;
2049;SDS011;8478;49.208;8.806;2023-12-20T04:55:26;3.20;;;3.00;;
2049;SDS011;8478;49.208;8.806;2023-12-20T04:57:52;3.27;;;3.07;;
2049;SDS011;8478;49.208;8.806;2023-12-20T05:00:18;3.20;;;2.90;;
2049;SDS011;8478;49.208;8.806;2023-12-20T05:02:43;2.73;;;2.53;;
2049;SDS011;8478;49.208;8.806;2023-12-20T05:05:09;3.23;;;3.03;;
2049;SDS011;8478;49.208;8.806;2023-12-20T05:07:35;3.43;;;3.13;;
2049;SDS011;8478;49.208;8.806;2023-12-20T05:10:01;3.20;;;2.93;;
2049;SDS011;8478;49.208;8.806;2023-12-20T05:12:29;2.90;;;2.70;;
2049;SDS011;8478;49.208;8.806;2023-12-20T05:14:55;3.70;;;3.40;;
2049;SDS011;8478;49.208;8.806;2023-12-20T05:17:21;2.67;;;2.47;;
2049;SDS011;8478;49.208;8.806;2023-12-20T05:19:46;2.80;;;2.60;;
2049;SDS011;8478;49.208;8.806;2023-12-20T05:22:12;2.50;;;2.30;;
2049;SDS011;8478;49.208;8.806;2023-12-20T05:24:38;2.90;;;2.70;;
2049;SDS011;8478;49.208;8.806;2023-12-20T05:27:03;3.87;;;3.10;;
2049;SDS011;8478;49.208;8.806;2023-12-20T05:29:29;3.07;;;2.87;;
2049;SDS011;8478;49.208;8.806;2023-12-20T05:31:55;3.53;;;3.27;;
2049;SDS011;8478;49.208;8.806;2023-12-20T05:34:21;3.30;;;3.10;;
2049;SDS011;8478;49.208;8.806;2023-12-20T05:36:46;3.10;;;2.90;;
2049;SDS011;8478;49.208;8.806;2023-12-20T05:39:12;3.53;;;3.23;;
2049;SDS011;8478;49.208;8.806;2023-12-20T05:41:37;3.27;;;3.07;;
2049;SDS011;8478;49.208;8.806;2023-12-20T05:44:03;2.93;;;2.73;;
2049;SDS011;8478;49.208;8.806;2023-12-20T05:46:29;3.10;;;2.90;;
2049;SDS011;8478;49.208;8.806;2023-12-20T05:48:54;3.80;;;3.50;;
2049;SDS011;8478;49.208;8.806;2023-12-20T05:51:20;3.57;;;3.27;;
2049;SDS011;8478;49.208;8.806;2023-12-20T05:53:46;3.40;;;3.20;;
2049;SDS011;8478;49.208;8.806;2023-12-20T05:56:12;3.00;;;2.80;;
2049;SDS011;8478;49.208;8.806;2023-12-20T05:58:38;3.20;;;2.93;;
2049;SDS011;8478;49.208;8.806;2023-12-20T06:01:05;4.27;;;3.30;;
2049;SDS011;8478;49.208;8.806;2023-12-20T06:03:31;3.20;;;2.90;;
2049;SDS011;8478;49.208;8.806;2023-12-20T06:05:56;3.07;;;2.87;;
2049;SDS011;8478;49.208;8.806;2023-12-20T06:08:22;3.43;;;3.03;;
2049;SDS011;8478;49.208;8.806;2023-12-20T06:10:48;3.07;;;2.87;;
2049;SDS011;8478;49.208;8.806;2023-12-20T06:13:14;3.10;;;2.90;;
2049;SDS011;8478;49.208;8.806;2023-12-20T06:15:39;3.00;;;2.80;;
2049;SDS011;8478;49.208;8.806;2023-12-20T06:18:05;3.23;;;2.97;;
2049;SDS011;8478;49.208;8.806;2023-12-20T06:20:32;3.10;;;2.90;;
2049;SDS011;8478;49.208;8.806;2023-12-20T06:22:58;3.10;;;2.90;;
2049;SDS011;8478;49.208;8.806;2023-12-20T06:25:24;3.23;;;3.00;;
2049;SDS011;8478;49.208;8.806;2023-12-20T06:27:50;3.30;;;3.00;;
2049;SDS011;8478;49.208;8.806;2023-12-20T06:30:15;3.23;;;3.00;;
2049;SDS011;8478;49.208;8.806;2023-12-20T06:32:41;3.20;;;3.00;;
2049;SDS011;8478;49.208;8.806;2023-12-20T06:35:08;3.30;;;3.10;;
2049;SDS011;8478;49.208;8.806;2023-12-20T06:37:34;3.50;;;3.30;;
2049;SDS011;8478;49.208;8.806;2023-12-20T06:40:00;2.60;;;2.40;;
2049;SDS011;8478;49.208;8.806;2023-12-20T06:42:26;3.30;;;3.10;;
2049;SDS011;8478;49.208;8.806;2023-12-20T06:44:52;3.23;;;3.03;;
2049;SDS011;8478;49.208;8.806;2023-12-20T06:47:18;3.10;;;2.90;;
2049;SDS011;8478;49.208;8.806;2023-12-20T06:49:43;3.57;;;3.27;;
2049;SDS011;8478;49.208;8.806;2023-12-20T06:52:09;3.50;;;3.30;;
2049;SDS011;8478;49.208;8.806;2023-12-20T06:54:35;3.40;;;3.20;;
2049;SDS011;8478;49.208;8.806;2023-12-20T06:57:01;3.00;;;2.70;;
2049;SDS011;8478;49.208;8.806;2023-12-20T06:59:28;3.00;;;2.80;;
2049;SDS011;8478;49.208;8.806;2023-12-20T07:01:54;3.13;;;2.93;;
2049;SDS011;8478;49.208;8.806;2023-12-20T07:04:20;3.70;;;3.40;;
2049;SDS011;8478;49.208;8.806;2023-12-20T07:06:49;3.40;;;3.20;;
2049;SDS011;8478;49.208;8.806;2023-12-20T07:09:17;3.03;;;2.83;;
2049;SDS011;8478;49.208;8.806;2023-12-20T07:11:42;3.00;;;2.80;;
2049;SDS011;8478;49.208;8.806;2023-12-20T07:14:08;3.37;;;3.07;;
2049;SDS011;8478;49.208;8.806;2023-12-20T07:16:34;3.10;;;2.90;;
2049;SDS011;8478;49.208;8.806;2023-12-20T07:19:00;3.10;;;2.90;;
2049;SDS011;8478;49.208;8.806;2023-12-20T07:21:25;3.60;;;3.30;;
2049;SDS011;8478;49.208;8.806;2023-12-20T07:23:51;3.30;;;3.10;;
2049;SDS011;8478;49.208;8.806;2023-12-20T07:26:17;3.10;;;2.90;;
2049;SDS011;8478;49.208;8.806;2023-12-20T07:28:42;3.30;;;3.10;;
2049;SDS011;8478;49.208;8.806;2023-12-20T07:31:08;3.20;;;3.00;;
2049;SDS011;8478;49.208;8.806;2023-12-20T07:33:34;3.07;;;2.87;;
2049;SDS011;8478;49.208;8.806;2023-12-20T07:35:59;3.47;;;3.17;;
2049;SDS011;8478;49.208;8.806;2023-12-20T07:38:26;3.10;;;2.90;;
2049;SDS011;8478;49.208;8.806;2023-12-20T07:40:51;3.33;;;3.13;;
2049;SDS011;8478;49.208;8.806;2023-12-20T07:43:17;3.40;;;3.20;;
2049;SDS011;8478;49.208;8.806;2023-12-20T07:45:43;3.30;;;3.10;;
2049;SDS011;8478;49.208;8.806;2023-12-20T07:48:08;3.53;;;3.33;;
2049;SDS011;8478;49.208;8.806;2023-12-20T07:50:34;3.20;;;3.00;;
2049;SDS011;8478;49.208;8.806;2023-12-20T07:52:59;3.93;;;3.67;;
2049;SDS011;8478;49.208;8.806;2023-12-20T07:55:26;3.70;;;3.40;;
2049;SDS011;8478;49.208;8.806;2023-12-20T07:57:52;3.47;;;3.20;;
2049;SDS011;8478;49.208;8.806;2023-12-20T08:00:18;4.30;;;3.90;;
2049;SDS011;8478;49.208;8.806;2023-12-20T08:02:44;3.50;;;3.30;;
2049;SDS011;8478;49.208;8.806;2023-12-20T08:05:10;3.50;;;3.30;;
2049;SDS011;8478;49.208;8.806;2023-12-20T08:07:36;3.63;;;3.33;;
2049;SDS011;8478;49.208;8.806;2023-12-20T08:10:01;3.37;;;3.17;;
2049;SDS011;8478;49.208;8.806;2023-12-20T08:12:27;3.20;;;2.90;;
2049;SDS011;8478;49.208;8.806;2023-12-20T08:14:53;3.63;;;3.33;;
2049;SDS011;8478;49.208;8.806;2023-12-20T08:17:19;3.60;;;3.30;;
2049;SDS011;8478;49.208;8.806;2023-12-20T08:19:45;3.30;;;3.10;;
2049;SDS011;8478;49.208;8.806;2023-12-20T08:22:11;3.43;;;3.03;;
2049;SDS011;8478;49.208;8.806;2023-12-20T08:24:37;3.37;;;3.07;;
2049;SDS011;8478;49.208;8.806;2023-12-20T08:27:03;3.40;;;3.10;;
2049;SDS011;8478;49.208;8.806;2023-12-20T08:29:29;3.63;;;3.40;;
2049;SDS011;8478;49.208;8.806;2023-12-20T08:31:55;3.77;;;3.47;;
2049;SDS011;8478;49.208;8.806;2023-12-20T08:34:22;4.00;;;3.60;;
2049;SDS011;8478;49.208;8.806;2023-12-20T08:36:48;3.30;;;3.10;;
2049;SDS011;8478;49.208;8.806;2023-12-20T08:39:16;5.10;;;3.80;;
2049;SDS011;8478;49.208;8.806;2023-12-20T08:41:42;3.60;;;3.40;;
2049;SDS011;8478;49.208;8.806;2023-12-20T08:44:08;3.80;;;3.40;;
2049;SDS011;8478;49.208;8.806;2023-12-20T08:46:34;3.37;;;3.13;;
2049;SDS011;8478;49.208;8.806;2023-12-20T08:49:00;3.23;;;3.03;;
2049;SDS011;8478;49.208;8.806;2023-12-20T08:51:26;3.37;;;3.10;;
2049;SDS011;8478;49.208;8.806;2023-12-20T08:53:52;2.90;;;2.70;;
2049;SDS011;8478;49.208;8.806;2023-12-20T08:56:18;3.23;;;3.00;;
2049;SDS011;8478;49.208;8.806;2023-12-20T08:58:45;3.10;;;2.90;;
2049;SDS011;8478;49.208;8.806;2023-12-20T09:01:12;3.23;;;2.97;;
2049;SDS011;8478;49.208;8.806;2023-12-20T09:03:38;3.13;;;2.93;;
2049;SDS011;8478;49.208;8.806;2023-12-20T09:06:05;3.73;;;3.43;;
2049;SDS011;8478;49.208;8.806;2023-12-20T09:08:30;3.50;;;3.20;;
2049;SDS011;8478;49.208;8.806;2023-12-20T09:10:56;3.77;;;3.47;;
2049;SDS011;8478;49.208;8.806;2023-12-20T09:13:22;3.37;;;3.17;;
2049;SDS011;8478;49.208;8.806;2023-12-20T09:15:53;3.20;;;2.90;;
2049;SDS011;8478;49.208;8.806;2023-12-20T09:18:22;5.20;;;3.10;;
2049;SDS011;8478;49.208;8.806;2023-12-20T09:20:48;3.60;;;3.07;;
2049;SDS011;8478;49.208;8.806;2023-12-20T09:23:14;2.63;;;2.33;;
2049;SDS011;8478;49.208;8.806;2023-12-20T09:25:39;4.30;;;2.73;;
2049;SDS011;8478;49.208;8.806;2023-12-20T09:28:05;2.80;;;2.60;;
2049;SDS011;8478;49.208;8.806;2023-12-20T09:30:31;2.40;;;2.20;;
2049;SDS011;8478;49.208;8.806;2023-12-20T09:32:57;3.07;;;2.77;;
2049;SDS011;8478;49.208;8.806;2023-12-20T09:35:22;3.00;;;2.80;;
2049;SDS011;8478;49.208;8.806;2023-12-20T09:37:48;3.20;;;3.00;;
2049;SDS011;8478;49.208;8.806;2023-12-20T09:40:14;3.57;;;3.23;;
2049;SDS011;8478;49.208;8.806;2023-12-20T09:42:57;4.87;;;3.37;;
2049;SDS011;8478;49.208;8.806;2023-12-20T09:45:23;4.90;;;2.80;;
2049;SDS011;8478;49.208;8.806;2023-12-20T09:47:53;3.07;;;2.80;;
2049;SDS011;8478;49.208;8.806;2023-12-20T09:50:21;2.63;;;2.43;;
2049;SDS011;8478;49.208;8.806;2023-12-20T09:52:51;3.20;;;2.93;;
2049;SDS011;8478;49.208;8.806;2023-12-20T09:55:18;4.33;;;2.70;;
2049;SDS011;8478;49.208;8.806;2023-12-20T09:57:48;2.67;;;2.40;;
2049;SDS011;8478;49.208;8.806;2023-12-20T10:00:14;3.30;;;2.93;;
2049;SDS011;8478;49.208;8.806;2023-12-20T10:02:42;3.10;;;2.90;;
2049;SDS011;8478;49.208;8.806;2023-12-20T10:05:15;3.50;;;2.90;;
2049;SDS011;8478;49.208;8.806;2023-12-20T10:07:46;4.97;;;2.80;;
2049;SDS011;8478;49.208;8.806;2023-12-20T10:10:13;4.60;;;2.87;;
2049;SDS011;8478;49.208;8.806;2023-12-20T10:12:39;5.03;;;3.47;;
2049;SDS011;8478;49.208;8.806;2023-12-20T10:15:05;2.73;;;2.53;;
2049;SDS011;8478;49.208;8.806;2023-12-20T10:17:31;2.73;;;2.53;;
2049;SDS011;8478;49.208;8.806;2023-12-20T10:19:57;3.30;;;2.50;;
2049;SDS011;8478;49.208;8.806;2023-12-20T10:22:23;3.30;;;2.87;;
2049;SDS011;8478;49.208;8.806;2023-12-20T10:24:49;3.13;;;2.77;;
2049;SDS011;8478;49.208;8.806;2023-12-20T10:27:15;3.50;;;3.03;;
2049;SDS011;8478;49.208;8.806;2023-12-20T10:29:44;2.90;;;2.30;;
2049;SDS011;8478;49.208;8.806;2023-12-20T10:32:26;3.17;;;2.70;;
2049;SDS011;8478;49.208;8.806;2023-12-20T10:34:53;5.30;;;2.43;;
2049;SDS011;8478;49.208;8.806;2023-12-20T10:37:19;4.37;;;3.30;;
2049;SDS011;8478;49.208;8.806;2023-12-20T10:39:49;2.70;;;2.30;;
2049;SDS011;8478;49.208;8.806;2023-12-20T10:42:22;3.10;;;2.57;;
2049;SDS011;8478;49.208;8.806;2023-12-20T10:44:51;3.90;;;3.60;;
2049;SDS011;8478;49.208;8.806;2023-12-20T10:47:18;4.90;;;2.57;;
2049;SDS011;8478;49.208;8.806;2023-12-20T10:49:45;2.70;;;2.30;;
2049;SDS011;8478;49.208;8.806;2023-12-20T10:52:11;4.50;;;2.80;;
2049;SDS011;8478;49.208;8.806;2023-12-20T10:54:38;2.70;;;2.50;;
2049;SDS011;8478;49.208;8.806;2023-12-20T10:57:07;5.03;;;2.70;;
2049;SDS011;8478;49.208;8.806;2023-12-20T10:59:34;3.00;;;2.70;;
2049;SDS011;8478;49.208;8.806;2023-12-20T11:02:02;3.70;;;2.57;;
2049;SDS011;8478;49.208;8.806;2023-12-20T11:04:36;2.83;;;2.60;;
2049;SDS011;8478;49.208;8.806;2023-12-20T11:09:54;5.10;;;2.80;;
2049;SDS011;8478;49.208;8.806;2023-12-20T11:12:31;4.37;;;3.00;;
2049;SDS011;8478;49.208;8.806;2023-12-20T11:15:05;4.30;;;2.70;;
2049;SDS011;8478;49.208;8.806;2023-12-20T11:17:33;3.60;;;2.83;;
2049;SDS011;8478;49.208;8.806;2023-12-20T11:22:31;3.20;;;2.40;;
2049;SDS011;8478;49.208;8.806;2023-12-20T11:25:06;5.37;;;3.10;;
2049;SDS011;8478;49.208;8.806;2023-12-20T11:27:47;3.73;;;3.10;;
2049;SDS011;8478;49.208;8.806;2023-12-20T11:30:40;3.77;;;3.07;;
2049;SDS011;8478;49.208;8.806;2023-12-20T11:33:07;4.20;;;2.57;;
2049;SDS011;8478;49.208;8.806;2023-12-20T11:35:34;6.10;;;3.30;;
2049;SDS011;8478;49.208;8.806;2023-12-20T11:38:01;5.57;;;3.40;;
2049;SDS011;8478;49.208;8.806;2023-12-20T11:40:27;4.13;;;2.73;;
2049;SDS011;8478;49.208;8.806;2023-12-20T11:42:53;6.07;;;3.00;;
2049;SDS011;8478;49.208;8.806;2023-12-20T11:45:24;5.37;;;3.10;;
2049;SDS011;8478;49.208;8.806;2023-12-20T11:47:51;3.60;;;3.20;;
2049;SDS011;8478;49.208;8.806;2023-12-20T11:50:19;6.90;;;3.20;;
2049;SDS011;8478;49.208;8.806;2023-12-20T11:52:46;6.67;;;4.07;;
2049;SDS011;8478;49.208;8.806;2023-12-20T11:55:12;4.40;;;3.17;;
2049;SDS011;8478;49.208;8.806;2023-12-20T11:57:38;3.80;;;2.97;;
2049;SDS011;8478;49.208;8.806;2023-12-20T12:00:04;4.43;;;3.50;;
2049;SDS011;8478;49.208;8.806;2023-12-20T12:02:31;3.87;;;3.37;;
2049;SDS011;8478;49.208;8.806;2023-12-20T12:04:57;7.10;;;3.50;;
2049;SDS011;8478;49.208;8.806;2023-12-20T12:07:24;3.93;;;2.53;;
2049;SDS011;8478;49.208;8.806;2023-12-20T12:09:50;4.17;;;3.40;;
2049;SDS011;8478;49.208;8.806;2023-12-20T12:12:16;4.33;;;3.37;;
2049;SDS011;8478;49.208;8.806;2023-12-20T12:14:43;3.17;;;2.90;;
2049;SDS011;8478;49.208;8.806;2023-12-20T12:17:13;4.43;;;4.00;;
2049;SDS011;8478;49.208;8.806;2023-12-20T12:19:39;4.10;;;3.13;;
2049;SDS011;8478;49.208;8.806;2023-12-20T12:22:06;3.70;;;2.80;;
2049;SDS011;8478;49.208;8.806;2023-12-20T12:24:35;3.83;;;3.30;;
2049;SDS011;8478;49.208;8.806;2023-12-20T12:27:02;3.83;;;3.20;;
2049;SDS011;8478;49.208;8.806;2023-12-20T12:29:28;5.27;;;3.90;;
2049;SDS011;8478;49.208;8.806;2023-12-20T12:31:54;4.10;;;3.20;;
2049;SDS011;8478;49.208;8.806;2023-12-20T12:34:20;8.67;;;3.20;;
2049;SDS011;8478;49.208;8.806;2023-12-20T12:36:46;5.37;;;3.67;;
2049;SDS011;8478;49.208;8.806;2023-12-20T12:39:13;5.97;;;4.20;;
2049;SDS011;8478;49.208;8.806;2023-12-20T12:41:42;7.50;;;3.80;;
2049;SDS011;8478;49.208;8.806;2023-12-20T12:44:07;6.90;;;4.47;;
2049;SDS011;8478;49.208;8.806;2023-12-20T12:46:33;5.13;;;4.33;;
2049;SDS011;8478;49.208;8.806;2023-12-20T12:48:59;5.50;;;4.13;;
2049;SDS011;8478;49.208;8.806;2023-12-20T12:51:25;5.43;;;4.40;;
2049;SDS011;8478;49.208;8.806;2023-12-20T12:53:51;5.40;;;3.90;;
2049;SDS011;8478;49.208;8.806;2023-12-20T12:56:16;4.50;;;4.10;;
2049;SDS011;8478;49.208;8.806;2023-12-20T12:58:42;4.30;;;3.70;;
2049;SDS011;8478;49.208;8.806;2023-12-20T13:01:08;5.27;;;4.20;;
2049;SDS011;8478;49.208;8.806;2023-12-20T13:03:34;6.33;;;4.00;;
2049;SDS011;8478;49.208;8.806;2023-12-20T13:06:00;7.50;;;4.33;;
2049;SDS011;8478;49.208;8.806;2023-12-20T13:08:26;4.40;;;4.00;;
2049;SDS011;8478;49.208;8.806;2023-12-20T13:10:53;6.40;;;3.87;;
2049;SDS011;8478;49.208;8.806;2023-12-20T13:13:18;4.70;;;3.50;;
2049;SDS011;8478;49.208;8.806;2023-12-20T13:15:44;4.40;;;3.47;;
2049;SDS011;8478;49.208;8.806;2023-12-20T13:18:17;3.80;;;3.40;;
2049;SDS011;8478;49.208;8.806;2023-12-20T13:20:44;4.00;;;3.60;;
2049;SDS011;8478;49.208;8.806;2023-12-20T13:23:09;4.50;;;3.27;;
2049;SDS011;8478;49.208;8.806;2023-12-20T13:25:35;4.13;;;3.73;;
2049;SDS011;8478;49.208;8.806;2023-12-20T13:28:01;8.70;;;4.13;;
2049;SDS011;8478;49.208;8.806;2023-12-20T13:30:28;4.30;;;3.50;;
2049;SDS011;8478;49.208;8.806;2023-12-20T13:32:54;5.30;;;3.73;;
2049;SDS011;8478;49.208;8.806;2023-12-20T13:35:20;5.00;;;3.50;;
2049;SDS011;8478;49.208;8.806;2023-12-20T13:37:46;5.13;;;4.03;;
2049;SDS011;8478;49.208;8.806;2023-12-20T13:40:12;4.17;;;3.33;;
2049;SDS011;8478;49.208;8.806;2023-12-20T13:42:38;4.30;;;3.90;;
2049;SDS011;8478;49.208;8.806;2023-12-20T13:45:05;4.57;;;3.70;;
2049;SDS011;8478;49.208;8.806;2023-12-20T13:47:31;4.93;;;3.27;;
2049;SDS011;8478;49.208;8.806;2023-12-20T13:49:57;7.50;;;3.70;;
2049;SDS011;8478;49.208;8.806;2023-12-20T13:52:23;4.27;;;3.83;;
2049;SDS011;8478;49.208;8.806;2023-12-20T13:54:49;4.47;;;3.60;;
2049;SDS011;8478;49.208;8.806;2023-12-20T13:57:14;5.80;;;3.90;;
2049;SDS011;8478;49.208;8.806;2023-12-20T13:59:40;6.27;;;4.00;;
2049;SDS011;8478;49.208;8.806;2023-12-20T14:02:06;10.03;;;4.50;;
2049;SDS011;8478;49.208;8.806;2023-12-20T14:04:32;5.53;;;4.00;;
2049;SDS011;8478;49.208;8.806;2023-12-20T14:06:57;6.37;;;3.53;;
2049;SDS011;8478;49.208;8.806;2023-12-20T14:09:23;4.17;;;3.77;;
2049;SDS011;8478;49.208;8.806;2023-12-20T14:11:49;4.77;;;3.77;;
2049;SDS011;8478;49.208;8.806;2023-12-20T14:14:15;6.93;;;4.20;;
2049;SDS011;8478;49.208;8.806;2023-12-20T14:16:40;6.00;;;3.87;;
2049;SDS011;8478;49.208;8.806;2023-12-20T14:19:09;7.23;;;3.67;;
2049;SDS011;8478;49.208;8.806;2023-12-20T14:21:34;6.63;;;4.13;;
2049;SDS011;8478;49.208;8.806;2023-12-20T14:24:00;7.43;;;4.13;;
2049;SDS011;8478;49.208;8.806;2023-12-20T14:26:26;10.60;;;4.00;;
2049;SDS011;8478;49.208;8.806;2023-12-20T14:28:53;4.93;;;3.40;;
2049;SDS011;8478;49.208;8.806;2023-12-20T14:31:19;4.47;;;3.90;;
2049;SDS011;8478;49.208;8.806;2023-12-20T14:33:44;7.07;;;4.13;;
2049;SDS011;8478;49.208;8.806;2023-12-20T14:36:11;6.50;;;3.90;;
2049;SDS011;8478;49.208;8.806;2023-12-20T14:38:36;4.20;;;3.80;;
2049;SDS011;8478;49.208;8.806;2023-12-20T14:41:02;5.93;;;3.73;;
2049;SDS011;8478;49.208;8.806;2023-12-20T14:43:30;9.47;;;4.10;;
2049;SDS011;8478;49.208;8.806;2023-12-20T14:45:56;7.63;;;3.53;;
2049;SDS011;8478;49.208;8.806;2023-12-20T14:48:22;4.90;;;3.50;;
2049;SDS011;8478;49.208;8.806;2023-12-20T14:50:47;5.47;;;3.77;;
2049;SDS011;8478;49.208;8.806;2023-12-20T14:53:14;5.70;;;3.63;;
2049;SDS011;8478;49.208;8.806;2023-12-20T14:55:41;6.00;;;4.20;;
2049;SDS011;8478;49.208;8.806;2023-12-20T14:58:07;4.23;;;3.53;;
2049;SDS011;8478;49.208;8.806;2023-12-20T15:00:33;8.43;;;4.10;;
2049;SDS011;8478;49.208;8.806;2023-12-20T15:02:59;4.67;;;3.47;;
2049;SDS011;8478;49.208;8.806;2023-12-20T15:05:24;6.10;;;3.90;;
2049;SDS011;8478;49.208;8.806;2023-12-20T15:07:51;6.50;;;3.83;;
2049;SDS011;8478;49.208;8.806;2023-12-20T15:10:17;5.70;;;3.37;;
2049;SDS011;8478;49.208;8.806;2023-12-20T15:12:43;5.00;;;4.53;;
2049;SDS011;8478;49.208;8.806;2023-12-20T15:15:12;6.03;;;4.00;;